Time;durP1;ratioP1;P1;durP2;ratioP2;P2;SDS_P1;SDS_P2;PMS_P1;PMS_P2;Temp;Humidity;BMP_temperature;BMP_pressure;BME280_temperature;BME280_humidity;BME280_pressure;Samples;Min_cycle;Max_cycle;Signal;HPM_P1;HPM_P2
2022/05/07 00:01:42;;;;;;;7.85;5.18;;;15.90;53.20;;;;;;5004396;28;20446;-44
2022/05/07 00:04:14;;;;;;;9.55;5.78;;;15.80;53.20;;;;;;5002646;28;20057;-46
2022/05/07 00:06:42;;;;;;;6.65;5.82;;;15.80;53.20;;;;;;4992169;28;20069;-45
2022/05/07 00:09:17;;;;;;;7.40;5.75;;;15.80;53.30;;;;;;5010836;28;20049;-43
2022/05/07 00:11:54;;;;;;;5.72;5.18;;;15.70;53.20;;;;;;4996987;28;20434;-44
2022/05/07 00:14:20;;;;;;;6.25;5.07;;;15.70;53.30;;;;;;5003308;28;20527;-44
2022/05/07 00:19:35;;;;;;;6.88;5.35;;;15.60;53.50;;;;;;5006633;28;20069;-47
2022/05/07 00:22:03;;;;;;;7.40;5.95;;;15.60;53.60;;;;;;5020173;28;20092;-45
2022/05/07 00:24:32;;;;;;;6.65;5.60;;;15.60;53.60;;;;;;5030196;28;20049;-44
2022/05/07 00:26:59;;;;;;;6.80;6.15;;;15.60;53.80;;;;;;5008995;28;20091;-44
2022/05/07 00:29:30;;;;;;;6.35;5.68;;;15.50;53.90;;;;;;5008099;28;20073;-43
2022/05/07 00:31:59;;;;;;;5.85;5.10;;;15.50;53.80;;;;;;4993222;28;20038;-44
2022/05/07 00:34:26;;;;;;;8.15;5.30;;;15.50;53.70;;;;;;5010739;28;20070;-43
2022/05/07 00:36:54;;;;;;;6.93;5.60;;;15.50;53.70;;;;;;5000899;28;20042;-44
2022/05/07 00:39:26;;;;;;;8.90;6.07;;;15.40;53.60;;;;;;5017740;28;20050;-45
2022/05/07 00:41:55;;;;;;;10.13;6.17;;;15.40;54.00;;;;;;5008653;28;20053;-43
2022/05/07 00:44:26;;;;;;;6.00;5.40;;;15.30;53.70;;;;;;5003168;28;20046;-45
2022/05/07 00:47:12;;;;;;;7.20;6.43;;;15.30;54.00;;;;;;5012716;28;20046;-45
2022/05/07 00:49:46;;;;;;;7.50;6.55;;;15.30;54.70;;;;;;4990111;28;20461;-44
2022/05/07 00:52:13;;;;;;;8.32;6.47;;;15.30;54.00;;;;;;4974884;28;20038;-45
2022/05/07 00:54:43;;;;;;;6.90;6.18;;;15.20;54.10;;;;;;5037511;23;20040;-48
2022/05/07 00:57:13;;;;;;;7.80;6.07;;;15.20;54.20;;;;;;5019853;28;20041;-49
2022/05/07 00:59:42;;;;;;;8.85;6.95;;;15.20;54.20;;;;;;5009447;28;20050;-48
2022/05/07 01:02:13;;;;;;;8.35;6.97;;;15.10;54.20;;;;;;5002477;28;20079;-48
2022/05/07 01:04:41;;;;;;;8.85;6.47;;;15.10;54.40;;;;;;5033668;28;20049;-49
2022/05/07 01:07:11;;;;;;;9.07;6.45;;;15.10;54.40;;;;;;5022690;28;20048;-48
2022/05/07 01:09:38;;;;;;;11.43;7.57;;;15.10;54.60;;;;;;5019638;28;20037;-47
2022/05/07 01:12:08;;;;;;;9.02;6.88;;;15.10;54.60;;;;;;5026198;28;20068;-50
2022/05/07 01:14:37;;;;;;;9.07;7.22;;;15.00;54.80;;;;;;5019074;28;20041;-49
2022/05/07 01:17:09;;;;;;;8.80;6.65;;;15.00;54.80;;;;;;5040103;28;20042;-47
2022/05/07 01:19:38;;;;;;;8.18;6.68;;;15.00;55.10;;;;;;5012442;28;20045;-47
2022/05/07 01:22:05;;;;;;;9.90;6.78;;;14.90;54.80;;;;;;5010849;28;20045;-52
2022/05/07 01:24:35;;;;;;;8.52;6.55;;;14.90;54.90;;;;;;5037779;28;20057;-49
2022/05/07 01:27:02;;;;;;;8.98;6.97;;;14.90;55.00;;;;;;5026574;28;20048;-51
2022/05/07 01:29:29;;;;;;;8.85;6.88;;;14.90;55.30;;;;;;5021361;28;20076;-51
2022/05/07 01:31:56;;;;;;;10.23;7.20;;;14.90;55.40;;;;;;5016641;28;20603;-52
2022/05/07 01:34:29;;;;;;;9.35;7.25;;;14.90;55.50;;;;;;5019734;28;20065;-51
2022/05/07 01:36:56;;;;;;;9.60;6.75;;;14.90;55.50;;;;;;5026112;28;20552;-52
2022/05/07 01:39:23;;;;;;;8.73;6.38;;;14.90;55.50;;;;;;5031171;28;20103;-53
2022/05/07 01:41:52;;;;;;;9.40;6.95;;;14.80;55.50;;;;;;5040003;28;20048;-52
2022/05/07 01:44:23;;;;;;;9.18;6.82;;;14.80;55.60;;;;;;5039170;28;20437;-50
2022/05/07 01:49:39;;;;;;;7.85;6.45;;;14.80;55.60;;;;;;5015608;28;20056;-48
2022/05/07 01:52:09;;;;;;;10.63;8.23;;;14.80;55.80;;;;;;5043311;28;20123;-50
2022/05/07 01:54:41;;;;;;;8.27;6.78;;;14.80;55.90;;;;;;5022741;28;20041;-53
2022/05/07 01:57:14;;;;;;;9.23;6.90;;;14.80;55.80;;;;;;5026270;28;20515;-52
2022/05/07 01:59:44;;;;;;;9.93;7.05;;;14.80;55.80;;;;;;5003683;28;20505;-52
2022/05/07 02:02:17;;;;;;;8.70;7.82;;;14.80;56.00;;;;;;5010465;28;20041;-50
2022/05/07 02:04:46;;;;;;;9.98;8.07;;;14.70;55.90;;;;;;5026865;28;20046;-49
2022/05/07 02:07:17;;;;;;;8.98;7.20;;;14.70;55.80;;;;;;5010283;28;20050;-52
2022/05/07 02:09:49;;;;;;;9.95;6.35;;;14.70;56.00;;;;;;5019146;28;20068;-50
2022/05/07 02:12:22;;;;;;;8.80;7.85;;;14.70;56.00;;;;;;5019959;28;20608;-52
2022/05/07 02:14:50;;;;;;;7.55;6.57;;;14.70;56.10;;;;;;5030279;28;20299;-52
2022/05/07 02:17:20;;;;;;;9.52;7.63;;;14.70;56.10;;;;;;5016930;28;20045;-48
2022/05/07 02:19:54;;;;;;;8.82;6.93;;;14.70;56.20;;;;;;5013695;28;20120;-52
2022/05/07 02:22:22;;;;;;;7.35;6.07;;;14.70;56.20;;;;;;5012761;28;20052;-49
2022/05/07 02:24:50;;;;;;;8.45;6.60;;;14.70;56.20;;;;;;5010115;28;20061;-49
2022/05/07 02:27:21;;;;;;;8.23;6.53;;;14.70;56.20;;;;;;5014785;28;20046;-50
2022/05/07 02:29:54;;;;;;;8.52;6.60;;;14.70;56.20;;;;;;5020087;28;20072;-50
2022/05/07 02:32:23;;;;;;;9.00;7.68;;;14.60;56.20;;;;;;5018396;28;20076;-48
2022/05/07 02:34:50;;;;;;;10.98;8.18;;;14.60;56.30;;;;;;5010695;28;20148;-48
2022/05/07 02:37:23;;;;;;;9.20;7.93;;;14.60;56.50;;;;;;5009689;28;20052;-52
2022/05/07 02:39:55;;;;;;;11.90;7.63;;;14.60;56.60;;;;;;5024541;28;20040;-51
2022/05/07 02:42:39;;;;;;;8.98;7.53;;;14.60;56.70;;;;;;5021896;28;20049;-51
2022/05/07 02:45:19;;;;;;;8.50;7.60;;;14.60;56.80;;;;;;5028390;28;20139;-50
2022/05/07 02:47:52;;;;;;;10.23;7.10;;;14.60;57.50;;;;;;5009186;28;20478;-50
2022/05/07 02:50:23;;;;;;;8.32;6.78;;;14.60;56.80;;;;;;5039225;28;20132;-50
2022/05/07 02:52:54;;;;;;;10.75;8.18;;;14.60;56.90;;;;;;5029710;28;20056;-53
2022/05/07 02:55:26;;;;;;;11.98;8.18;;;14.50;57.60;;;;;;5018469;28;20038;-51
2022/05/07 02:57:55;;;;;;;10.30;7.53;;;14.50;57.00;;;;;;5016171;28;20044;-52
2022/05/07 03:00:23;;;;;;;11.13;7.57;;;14.50;57.10;;;;;;5020918;28;20055;-49
2022/05/07 03:02:52;;;;;;;11.07;8.32;;;14.50;57.20;;;;;;5026026;28;20672;-52
2022/05/07 03:05:26;;;;;;;9.32;7.68;;;14.50;57.40;;;;;;5028413;28;20058;-50
2022/05/07 03:08:00;;;;;;;10.63;8.38;;;14.50;57.50;;;;;;5019512;28;20578;-52
2022/05/07 03:10:33;;;;;;;10.10;7.85;;;14.50;57.50;;;;;;5012216;28;20045;-51
2022/05/07 03:13:06;;;;;;;10.43;8.60;;;14.60;57.60;;;;;;5019828;28;20620;-52
2022/05/07 03:15:33;;;;;;;9.80;8.15;;;14.50;57.50;;;;;;5046199;28;20043;-52
2022/05/07 03:18:12;;;;;;;9.65;7.78;;;14.50;57.50;;;;;;5013542;28;20441;-52
2022/05/07 03:20:41;;;;;;;9.02;8.10;;;14.50;57.70;;;;;;5029135;28;20454;-52
2022/05/07 03:23:15;;;;;;;8.95;7.25;;;14.50;57.40;;;;;;5037470;28;20041;-50
2022/05/07 03:25:45;;;;;;;9.93;7.95;;;14.50;57.60;;;;;;5025918;28;20037;-49
2022/05/07 03:28:15;;;;;;;8.98;7.85;;;14.50;57.20;;;;;;5018260;28;20112;-49
2022/05/07 03:30:45;;;;;;;12.07;8.02;;;14.50;57.40;;;;;;5038110;28;20025;-50
2022/05/07 03:33:17;;;;;;;10.03;6.83;;;14.40;57.40;;;;;;5023743;28;20041;-49
2022/05/07 03:35:48;;;;;;;9.20;7.60;;;14.40;57.60;;;;;;5010094;28;20137;-52
2022/05/07 03:38:17;;;;;;;9.73;7.50;;;14.40;57.50;;;;;;5010584;28;20042;-51
2022/05/07 03:40:53;;;;;;;8.85;7.63;;;14.40;57.30;;;;;;5038902;28;20041;-49
2022/05/07 03:43:27;;;;;;;8.93;7.63;;;14.40;57.40;;;;;;5018095;28;20049;-49
2022/05/07 03:45:56;;;;;;;8.20;7.35;;;14.40;57.60;;;;;;5013701;28;20041;-49
2022/05/07 03:48:25;;;;;;;8.32;7.45;;;14.30;57.70;;;;;;5015279;28;20462;-50
2022/05/07 03:50:59;;;;;;;9.07;7.38;;;14.30;57.50;;;;;;5009988;28;20133;-51
2022/05/07 03:53:29;;;;;;;10.77;7.93;;;14.30;58.20;;;;;;5014212;28;20048;-50
2022/05/07 03:56:08;;;;;;;8.45;7.32;;;14.30;57.90;;;;;;5013204;28;20041;-51
2022/05/07 03:58:37;;;;;;;12.13;7.82;;;14.30;57.60;;;;;;5036376;28;20038;-50
2022/05/07 04:01:11;;;;;;;11.00;8.68;;;14.30;57.70;;;;;;5030616;28;20050;-50
2022/05/07 04:03:38;;;;;;;9.85;7.85;;;14.20;57.70;;;;;;5017389;28;20053;-49
2022/05/07 04:06:15;;;;;;;10.40;8.35;;;14.20;57.90;;;;;;5051564;28;20181;-49
2022/05/07 04:08:48;;;;;;;11.38;7.95;;;14.20;58.60;;;;;;5036228;28;20136;-52
2022/05/07 04:11:15;;;;;;;11.82;7.90;;;14.20;58.30;;;;;;5039658;28;20045;-52
2022/05/07 04:13:47;;;;;;;11.82;8.30;;;14.20;58.10;;;;;;5024437;28;20037;-49
2022/05/07 04:16:19;;;;;;;9.68;7.15;;;14.20;58.20;;;;;;5021258;28;20684;-49
2022/05/07 04:18:57;;;;;;;8.77;7.82;;;14.20;58.20;;;;;;5011774;28;20045;-51
2022/05/07 04:21:28;;;;;;;10.57;7.78;;;14.20;58.40;;;;;;5020717;28;20053;-52
2022/05/07 04:24:08;;;;;;;8.57;7.68;;;14.20;58.70;;;;;;5024696;28;20071;-51
2022/05/07 04:26:38;;;;;;;9.23;7.30;;;14.20;58.60;;;;;;5033173;28;20056;-49
2022/05/07 04:29:15;;;;;;;;;;;;;;;;;;;;;
2022/05/07 04:31:45;;;;;;;10.25;8.55;;;14.20;58.80;;;;;;5024019;28;20037;-50
2022/05/07 04:34:13;;;;;;;10.63;8.35;;;14.30;58.90;;;;;;5032244;28;20046;-50
2022/05/07 04:36:45;;;;;;;9.80;7.68;;;14.30;59.10;;;;;;5012378;28;20042;-53
2022/05/07 04:39:17;;;;;;;10.60;7.45;;;14.30;59.10;;;;;;5032905;28;20520;-49
2022/05/07 04:41:58;;;;;;;9.60;8.23;;;14.30;59.60;;;;;;5023076;28;20053;-49
2022/05/07 04:44:38;;;;;;;9.25;7.90;;;14.40;59.50;;;;;;5048941;28;20416;-52
2022/05/07 04:47:17;;;;;;;10.70;8.85;;;14.40;59.90;;;;;;5047722;28;20077;-52
2022/05/07 04:49:44;;;;;;;9.23;7.63;;;14.50;60.10;;;;;;5027978;28;20041;-49
2022/05/07 04:52:12;;;;;;;12.15;7.85;;;14.50;60.00;;;;;;5028066;28;20037;-49
2022/05/07 04:54:41;;;;;;;10.85;8.65;;;14.50;60.20;;;;;;5010839;28;20038;-52
2022/05/07 04:57:12;;;;;;;10.52;8.38;;;14.60;60.40;;;;;;5025278;28;20069;-48
2022/05/07 04:59:59;;;;;;;10.25;8.30;;;14.60;60.60;;;;;;5028325;28;20053;-52
2022/05/07 05:02:47;;;;;;;10.70;8.20;;;14.70;60.70;;;;;;5027458;28;20034;-49
2022/05/07 05:05:17;;;;;;;11.52;9.13;;;14.80;61.40;;;;;;5021137;28;20038;-50
2022/05/07 05:07:56;;;;;;;12.52;9.43;;;14.80;61.50;;;;;;5010969;28;20045;-50
2022/05/07 05:10:27;;;;;;;10.45;9.35;;;14.90;61.80;;;;;;5010993;28;20119;-50
2022/05/07 05:12:56;;;;;;;12.60;10.15;;;15.00;62.10;;;;;;5008133;28;20041;-52
2022/05/07 05:15:26;;;;;;;10.95;9.13;;;15.10;62.30;;;;;;5026388;28;20037;-50
2022/05/07 05:18:00;;;;;;;10.55;8.60;;;15.20;62.50;;;;;;5022971;28;20263;-49
2022/05/07 05:20:28;;;;;;;11.68;9.73;;;15.30;62.60;;;;;;5028294;28;20037;-52
2022/05/07 05:23:17;;;;;;;11.57;9.32;;;15.40;62.60;;;;;;5005772;28;20034;-49
2022/05/07 05:25:50;;;;;;;12.48;10.05;;;15.50;62.70;;;;;;5007831;28;20041;-52
2022/05/07 05:28:43;;;;;;;13.30;9.77;;;15.60;63.50;;;;;;5004096;28;20860;-51
2022/05/07 05:31:14;;;;;;;12.88;9.93;;;15.70;61.70;;;;;;5032540;28;20049;-50
2022/05/07 05:33:50;;;;;;;14.45;10.35;;;15.80;61.10;;;;;;5027311;28;20046;-50
2022/05/07 05:36:27;;;;;;;14.40;10.70;;;15.90;60.80;;;;;;5020719;28;20136;-52
2022/05/07 05:38:57;;;;;;;12.98;10.40;;;16.00;60.40;;;;;;5015354;28;20068;-51
2022/05/07 05:41:26;;;;;;;16.48;11.32;;;16.10;60.20;;;;;;5048678;28;20216;-51
2022/05/07 05:43:53;;;;;;;15.80;11.15;;;16.20;59.70;;;;;;5016939;28;20044;-53
2022/05/07 05:46:20;;;;;;;14.43;9.75;;;16.30;59.10;;;;;;5022050;28;20045;-53
2022/05/07 05:48:50;;;;;;;14.68;10.38;;;16.40;59.20;;;;;;5030958;28;20059;-50
2022/05/07 05:51:16;;;;;;;12.82;10.30;;;16.50;59.00;;;;;;5017539;28;20108;-51
2022/05/07 05:53:49;;;;;;;17.58;11.10;;;16.70;58.70;;;;;;5013236;28;20044;-53
2022/05/07 05:56:19;;;;;;;14.13;10.10;;;16.70;58.60;;;;;;5018025;28;20505;-52
2022/05/07 05:58:50;;;;;;;16.67;11.98;;;16.90;58.50;;;;;;5040408;28;20107;-52
2022/05/07 06:01:24;;;;;;;16.33;11.23;;;16.90;58.00;;;;;;5039000;28;20107;-52
2022/05/07 06:04:11;;;;;;;14.23;10.27;;;17.00;57.60;;;;;;5025728;28;20077;-53
2022/05/07 06:06:41;;;;;;;13.88;10.60;;;17.20;57.40;;;;;;5010615;28;20057;-50
2022/05/07 06:09:13;;;;;;;15.07;10.13;;;17.20;57.20;;;;;;5026634;28;20045;-53
2022/05/07 06:11:43;;;;;;;13.40;10.20;;;17.30;56.80;;;;;;5012075;28;20060;-52
2022/05/07 06:14:10;;;;;;;13.02;10.65;;;17.40;57.10;;;;;;5018305;28;20397;-52
2022/05/07 06:16:37;;;;;;;11.80;9.82;;;17.50;56.10;;;;;;5002285;28;20033;-53
2022/05/07 06:19:10;;;;;;;12.63;9.75;;;17.60;55.80;;;;;;5006971;28;20416;-50
2022/05/07 06:21:39;;;;;;;15.27;10.52;;;17.60;55.50;;;;;;5021511;28;20068;-51
2022/05/07 06:29:39;;;;;;;13.30;10.30;;;17.80;54.80;;;;;;5009641;28;20050;-50
2022/05/07 06:32:11;;;;;;;13.38;10.27;;;17.80;54.60;;;;;;5026556;28;20037;-54
2022/05/07 06:34:38;;;;;;;12.40;9.50;;;17.90;54.50;;;;;;5029986;28;20136;-54
2022/05/07 06:37:05;;;;;;;12.52;10.10;;;18.00;54.50;;;;;;5015518;28;20046;-52
2022/05/07 06:39:35;;;;;;;18.45;10.77;;;18.00;54.30;;;;;;5024422;28;20458;-54
2022/05/07 06:42:02;;;;;;;14.63;11.07;;;18.00;54.60;;;;;;5013171;28;20050;-54
2022/05/07 06:44:32;;;;;;;13.38;10.73;;;18.00;54.20;;;;;;5007999;28;20053;-53
2022/05/07 06:47:02;;;;;;;14.32;10.68;;;18.10;54.30;;;;;;4960634;28;20656;-52
2022/05/07 06:49:30;;;;;;;13.38;9.82;;;18.10;54.70;;;;;;5011841;28;20041;-53
2022/05/07 06:51:58;;;;;;;12.35;9.80;;;18.10;54.70;;;;;;4997238;28;20569;-54
2022/05/07 06:54:25;;;;;;;13.68;10.65;;;18.10;54.60;;;;;;5047520;23;20687;-47
2022/05/07 06:56:52;;;;;;;14.52;10.68;;;18.20;54.70;;;;;;5030309;28;20045;-48
2022/05/07 06:59:20;;;;;;;16.30;11.30;;;18.20;54.60;;;;;;5066430;28;20044;-46
2022/05/07 07:01:48;;;;;;;15.70;11.18;;;18.20;54.60;;;;;;5036095;28;20052;-45
2022/05/07 07:04:14;;;;;;;13.77;11.32;;;18.20;54.60;;;;;;5063856;28;20089;-50
2022/05/07 07:06:41;;;;;;;18.45;11.93;;;18.30;54.50;;;;;;5052877;28;20041;-47
2022/05/07 07:09:08;;;;;;;14.27;11.82;;;18.30;54.40;;;;;;5066792;28;20044;-47
2022/05/07 07:11:37;;;;;;;13.82;11.15;;;18.30;54.30;;;;;;5059119;28;20057;-51
2022/05/07 07:14:07;;;;;;;15.27;10.98;;;18.30;54.20;;;;;;5059172;28;20051;-48
2022/05/07 07:16:33;;;;;;;16.52;11.43;;;18.30;54.20;;;;;;5045947;28;20028;-50
2022/05/07 07:19:00;;;;;;;16.10;11.93;;;18.30;54.20;;;;;;5065030;28;20071;-46
2022/05/07 07:21:27;;;;;;;14.48;10.90;;;18.30;54.40;;;;;;5056043;28;20094;-44
2022/05/07 07:23:57;;;;;;;17.27;11.93;;;18.30;55.10;;;;;;5059825;28;20041;-46
2022/05/07 07:26:24;;;;;;;17.08;11.77;;;18.40;55.20;;;;;;5048211;28;20072;-45
2022/05/07 07:28:50;;;;;;;17.92;12.13;;;18.40;54.70;;;;;;5067361;28;20102;-50
2022/05/07 07:31:17;;;;;;;15.77;12.07;;;18.50;54.70;;;;;;5056666;28;20555;-48
2022/05/07 07:33:44;;;;;;;16.42;11.23;;;18.50;55.20;;;;;;5060966;28;20037;-49
2022/05/07 07:36:14;;;;;;;16.70;12.27;;;18.60;54.70;;;;;;5068636;28;20071;-48
2022/05/07 07:38:43;;;;;;;15.00;12.60;;;18.60;54.80;;;;;;5082798;28;20040;-49
2022/05/07 07:41:10;;;;;;;14.82;11.90;;;18.60;55.00;;;;;;5084949;28;20557;-49
2022/05/07 07:43:42;;;;;;;16.67;12.20;;;18.70;54.90;;;;;;5091958;28;20037;-48
2022/05/07 07:48:58;;;;;;;14.38;11.75;;;18.80;54.50;;;;;;5079840;28;20137;-49
2022/05/07 07:51:31;;;;;;;17.20;12.77;;;18.80;54.30;;;;;;5085042;28;20507;-48
2022/05/07 07:54:00;;;;;;;18.30;13.68;;;18.80;54.30;;;;;;5093197;28;20059;-49
2022/05/07 07:56:29;;;;;;;21.00;13.68;;;18.90;54.30;;;;;;5075258;28;20044;-50
2022/05/07 07:58:56;;;;;;;15.63;12.25;;;18.90;54.50;;;;;;5081079;28;20033;-50
2022/05/07 08:01:23;;;;;;;17.50;13.02;;;19.00;54.30;;;;;;5038414;28;20558;-49
2022/05/07 08:03:56;;;;;;;18.42;12.70;;;19.00;54.30;;;;;;5072521;28;20060;-50
2022/05/07 08:06:25;;;;;;;18.15;12.90;;;19.00;54.80;;;;;;5082491;28;20530;-49
2022/05/07 08:11:44;;;;;;;18.30;13.30;;;19.10;54.60;;;;;;5072976;28;20041;-48
2022/05/07 08:14:14;;;;;;;19.00;12.52;;;19.10;54.40;;;;;;5062134;28;20051;-49
2022/05/07 08:16:49;;;;;;;22.35;14.73;;;19.20;54.50;;;;;;5084141;28;20471;-49
2022/05/07 08:19:16;;;;;;;21.73;15.15;;;19.20;54.20;;;;;;5082326;28;20518;-47
2022/05/07 08:21:43;;;;;;;18.00;14.40;;;19.20;54.30;;;;;;5093179;28;20083;-49
2022/05/07 08:24:10;;;;;;;17.77;14.32;;;19.20;54.50;;;;;;5082726;28;20090;-49
2022/05/07 08:26:39;;;;;;;20.48;15.35;;;19.30;54.40;;;;;;5084753;28;20098;-49
2022/05/07 08:29:08;;;;;;;19.75;15.05;;;19.30;54.70;;;;;;5088425;28;20139;-49
2022/05/07 08:31:36;;;;;;;19.40;15.98;;;19.40;54.40;;;;;;5068119;28;20055;-50
2022/05/07 08:34:07;;;;;;;19.92;14.85;;;19.40;54.70;;;;;;5087258;28;20484;-51
2022/05/07 08:36:34;;;;;;;21.15;17.55;;;19.50;54.20;;;;;;5074647;28;20078;-47
2022/05/07 08:39:01;;;;;;;21.33;15.55;;;19.50;54.40;;;;;;5078079;28;20092;-48
2022/05/07 08:41:30;;;;;;;20.55;16.27;;;19.60;54.30;;;;;;5079850;28;20040;-47
2022/05/07 08:43:56;;;;;;;22.63;15.07;;;19.60;54.20;;;;;;5075724;28;20053;-46
2022/05/07 08:46:27;;;;;;;24.08;17.83;;;19.70;54.20;;;;;;5081775;28;20043;-47
2022/05/07 08:48:54;;;;;;;24.10;18.23;;;19.70;53.90;;;;;;5092221;28;20040;-45
2022/05/07 08:51:21;;;;;;;25.35;16.60;;;19.70;54.10;;;;;;5082763;28;20086;-46
2022/05/07 08:53:53;;;;;;;22.58;17.08;;;19.80;53.90;;;;;;5083613;28;20071;-47
2022/05/07 08:56:25;;;;;;;22.35;18.35;;;19.90;53.70;;;;;;5082783;28;20441;-46
2022/05/07 08:58:54;;;;;;;22.13;16.52;;;19.90;54.20;;;;;;5086399;28;20036;-47
2022/05/07 09:01:23;;;;;;;22.92;18.08;;;20.00;54.20;;;;;;5072542;28;20060;-46
2022/05/07 09:03:50;;;;;;;22.10;17.05;;;20.00;53.50;;;;;;5077751;28;20048;-47
2022/05/07 09:06:26;;;;;;;23.38;17.35;;;20.10;53.00;;;;;;5082453;28;20392;-45
2022/05/07 09:08:55;;;;;;;20.85;16.20;;;20.10;53.50;;;;;;5089818;28;20552;-46
2022/05/07 09:11:22;;;;;;;21.35;15.90;;;20.20;53.50;;;;;;5066780;28;20102;-47
2022/05/07 09:14:05;;;;;;;25.30;17.13;;;20.30;53.80;;;;;;5079433;28;20485;-47
2022/05/07 09:16:49;;;;;;;21.00;15.85;;;20.30;54.00;;;;;;5078630;28;20102;-46
2022/05/07 09:19:22;;;;;;;24.10;16.20;;;20.40;52.90;;;;;;5064199;28;20446;-45
2022/05/07 09:21:54;;;;;;;23.42;16.38;;;20.50;52.70;;;;;;5063528;28;20704;-44
2022/05/07 09:24:23;;;;;;;24.15;17.83;;;20.50;53.00;;;;;;5041515;28;20044;-46
2022/05/07 09:26:50;;;;;;;21.98;17.33;;;20.60;52.30;;;;;;5047825;28;20040;-47
2022/05/07 09:29:18;;;;;;;27.15;18.35;;;20.70;52.40;;;;;;5053080;28;20404;-47
2022/05/07 09:31:48;;;;;;;22.88;17.63;;;20.70;52.70;;;;;;5064018;28;20047;-47
2022/05/07 09:37:16;;;;;;;20.17;16.13;;;20.80;52.80;;;;;;5061736;28;20040;-45
2022/05/07 09:39:48;;;;;;;22.45;16.23;;;20.90;52.20;;;;;;5060386;28;20033;-51
2022/05/07 09:42:22;;;;;;;23.30;15.88;;;20.90;52.10;;;;;;5069297;28;20130;-44
2022/05/07 09:44:49;;;;;;;21.00;15.57;;;21.00;52.50;;;;;;5057097;28;20420;-48
2022/05/07 09:47:16;;;;;;;20.35;15.23;;;21.10;52.10;;;;;;5061263;28;20408;-45
2022/05/07 09:52:31;;;;;;;21.67;15.68;;;21.20;51.50;;;;;;5056422;28;20137;-50
2022/05/07 09:57:45;;;;;;;18.65;15.63;;;21.30;51.60;;;;;;5050495;28;20119;-50
2022/05/07 10:00:17;;;;;;;19.83;16.17;;;21.40;50.90;;;;;;5061904;28;20041;-47
2022/05/07 10:03:02;;;;;;;21.57;15.93;;;21.50;50.90;;;;;;5039272;28;20045;-53
2022/05/07 10:05:48;;;;;;;17.55;14.60;;;21.50;50.70;;;;;;5057150;28;20119;-49
2022/05/07 10:08:33;;;;;;;19.52;16.30;;;21.60;50.70;;;;;;5044185;28;20060;-49
2022/05/07 10:11:00;;;;;;;18.85;14.25;;;21.60;50.50;;;;;;5035323;28;20048;-49
2022/05/07 10:13:27;;;;;;;19.80;15.23;;;21.70;50.80;;;;;;5043484;28;20060;-50
2022/05/07 10:16:01;;;;;;;22.38;15.75;;;21.70;50.40;;;;;;5063982;28;20090;-49
2022/05/07 10:18:41;;;;;;;20.52;14.13;;;21.80;49.90;;;;;;5049724;28;20039;-48
2022/05/07 10:21:14;;;;;;;21.42;16.40;;;21.80;49.70;;;;;;5070741;28;20107;-54
2022/05/07 10:23:54;;;;;;;20.13;15.30;;;21.90;50.30;;;;;;5050096;28;20052;-49
2022/05/07 10:26:23;;;;;;;19.77;15.38;;;22.00;49.10;;;;;;5057580;28;20047;-51
2022/05/07 10:28:50;;;;;;;18.83;15.52;;;22.10;49.40;;;;;;5054899;28;20052;-51
2022/05/07 10:31:22;;;;;;;20.42;15.48;;;22.10;49.20;;;;;;5062960;28;20048;-51
2022/05/07 10:33:50;;;;;;;22.23;15.70;;;22.20;48.70;;;;;;5050936;28;20041;-47
2022/05/07 10:36:18;;;;;;;20.60;14.43;;;22.30;49.40;;;;;;5066721;28;20291;-47
2022/05/07 10:38:46;;;;;;;18.70;12.85;;;22.30;50.20;;;;;;5049063;28;20045;-47
2022/05/07 10:41:14;;;;;;;15.80;13.50;;;22.40;49.10;;;;;;5067677;28;20036;-47
2022/05/07 10:43:43;;;;;;;19.73;14.32;;;22.50;48.60;;;;;;5052408;28;20112;-47
2022/05/07 10:46:20;;;;;;;18.08;13.32;;;22.50;48.20;;;;;;5065554;28;20102;-47
2022/05/07 10:49:04;;;;;;;17.52;13.40;;;22.60;48.30;;;;;;5047233;28;20060;-48
2022/05/07 10:51:38;;;;;;;17.33;12.52;;;22.70;49.10;;;;;;5056256;28;20044;-47
2022/05/07 10:54:19;;;;;;;17.60;11.98;;;22.80;48.50;;;;;;5046852;28;20048;-47
2022/05/07 10:56:48;;;;;;;14.82;11.70;;;23.00;48.20;;;;;;5058943;28;20602;-47
2022/05/07 10:59:15;;;;;;;14.05;11.52;;;23.10;48.30;;;;;;5050739;28;20045;-48
2022/05/07 11:01:43;;;;;;;18.05;11.52;;;23.10;47.60;;;;;;5055865;28;20037;-47
2022/05/07 11:04:13;;;;;;;12.98;10.02;;;23.30;47.30;;;;;;5046610;28;20411;-51
2022/05/07 11:06:39;;;;;;;14.63;9.90;;;23.40;47.20;;;;;;5065222;28;20097;-44
2022/05/07 11:09:13;;;;;;;13.65;10.25;;;23.60;47.50;;;;;;5050761;28;20098;-47
2022/05/07 11:11:44;;;;;;;12.10;10.18;;;23.80;47.50;;;;;;5052357;28;20110;-48
2022/05/07 11:14:23;;;;;;;10.83;9.23;;;23.90;46.30;;;;;;5041174;28;20041;-47
2022/05/07 11:16:51;;;;;;;12.68;10.20;;;24.00;46.50;;;;;;5047839;28;20475;-46
2022/05/07 11:19:28;;;;;;;16.90;10.95;;;24.10;45.20;;;;;;5050350;28;20053;-48
2022/05/07 11:21:56;;;;;;;11.30;6.35;;;24.30;44.40;;;;;;5063577;28;20566;-48
2022/05/07 11:24:26;;;;;;;5.50;4.50;;;24.40;44.40;;;;;;5050126;28;20048;-45
2022/05/07 11:26:55;;;;;;;6.32;5.20;;;24.60;43.80;;;;;;5063220;28;20639;-49
2022/05/07 11:29:23;;;;;;;5.32;4.10;;;24.70;44.00;;;;;;5049768;28;20095;-50
2022/05/07 11:32:01;;;;;;;7.93;6.10;;;24.80;43.50;;;;;;5064863;28;20126;-50
2022/05/07 11:34:32;;;;;;;6.85;5.90;;;24.80;42.80;;;;;;5046922;28;20044;-47
2022/05/07 11:37:24;;;;;;;7.40;4.32;;;24.80;42.90;;;;;;5046681;28;20041;-47
2022/05/07 11:39:59;;;;;;;5.32;3.80;;;24.80;41.10;;;;;;5063143;28;20032;-47
2022/05/07 11:42:35;;;;;;;3.83;3.45;;;24.80;40.70;;;;;;5063455;28;20427;-47
2022/05/07 11:45:27;;;;;;;3.28;2.75;;;24.80;40.80;;;;;;5065390;28;20054;-46
2022/05/07 11:48:05;;;;;;;5.88;4.22;;;24.70;38.90;;;;;;5055068;28;20044;-44
2022/05/07 11:50:42;;;;;;;6.55;4.00;;;24.70;39.90;;;;;;5065033;28;20071;-48
2022/05/07 11:53:13;;;;;;;5.43;3.45;;;24.70;39.70;;;;;;5055251;28;20215;-49
2022/05/07 11:55:41;;;;;;;5.70;4.40;;;24.70;39.70;;;;;;5058515;28;20090;-46
2022/05/07 11:58:22;;;;;;;6.25;5.65;;;24.80;40.80;;;;;;5053882;28;20072;-49
2022/05/07 12:00:56;;;;;;;7.20;5.32;;;24.80;39.80;;;;;;5068160;28;20067;-47
2022/05/07 12:03:25;;;;;;;6.85;5.07;;;24.80;40.50;;;;;;5054875;28;20032;-51
2022/05/07 12:05:53;;;;;;;7.72;5.43;;;24.90;40.00;;;;;;5069434;28;20055;-48
2022/05/07 12:08:38;;;;;;;6.90;5.50;;;24.90;39.90;;;;;;5056876;28;20442;-49
2022/05/07 12:11:05;;;;;;;7.43;5.10;;;24.90;39.60;;;;;;5078219;28;20067;-48
2022/05/07 12:13:32;;;;;;;7.10;5.13;;;25.10;41.10;;;;;;5054545;28;20451;-48
2022/05/07 12:18:49;;;;;;;5.40;3.50;;;25.10;40.70;;;;;;5054070;28;20037;-51
2022/05/07 12:21:16;;;;;;;5.53;4.15;;;25.20;40.10;;;;;;5064288;28;20040;-47
2022/05/07 12:32:03;;;;;;;8.50;4.65;;;25.20;39.60;;;;;;5071054;28;20503;-47
2022/05/07 12:34:30;;;;;;;5.30;4.80;;;25.20;39.50;;;;;;5042041;28;20120;-46
2022/05/07 12:36:57;;;;;;;6.95;4.50;;;25.30;38.00;;;;;;5071194;28;20102;-48
2022/05/07 12:39:24;;;;;;;4.45;3.70;;;25.40;38.20;;;;;;5055614;28;20087;-48
2022/05/07 12:41:51;;;;;;;4.53;3.08;;;25.40;38.60;;;;;;5069814;28;20440;-48
2022/05/07 12:44:18;;;;;;;3.88;3.10;;;25.50;38.80;;;;;;5048358;28;20072;-48
2022/05/07 12:46:45;;;;;;;3.05;2.70;;;25.60;38.40;;;;;;5066212;28;20087;-47
2022/05/07 12:49:12;;;;;;;2.75;2.20;;;25.70;37.80;;;;;;5050733;28;20049;-48
2022/05/07 12:51:39;;;;;;;1.73;1.45;;;25.80;37.00;;;;;;5069524;28;20470;-49
2022/05/07 12:54:06;;;;;;;5.22;1.85;;;25.90;36.50;;;;;;5054385;28;20098;-48
2022/05/07 12:56:33;;;;;;;2.75;1.35;;;25.90;35.80;;;;;;5065738;28;20075;-50
2022/05/07 12:58:59;;;;;;;2.63;1.80;;;26.10;35.80;;;;;;5052573;28;20064;-49
2022/05/07 13:01:26;;;;;;;3.55;1.90;;;26.10;36.00;;;;;;5075265;28;20040;-50
2022/05/07 13:03:54;;;;;;;6.00;2.45;;;26.20;34.70;;;;;;5054107;28;20045;-48
2022/05/07 13:06:20;;;;;;;3.75;3.00;;;26.30;34.80;;;;;;5074994;22;20072;-47
2022/05/07 13:08:51;;;;;;;4.32;3.42;;;26.40;35.50;;;;;;5012672;28;20136;-47
2022/05/07 13:11:18;;;;;;;5.50;3.65;;;26.50;36.30;;;;;;5010824;28;20049;-47
2022/05/07 13:13:45;;;;;;;3.45;2.30;;;26.60;35.50;;;;;;5003601;28;20540;-48
2022/05/07 13:16:13;;;;;;;2.10;1.58;;;26.80;34.10;;;;;;5023254;28;20061;-47
2022/05/07 13:18:40;;;;;;;2.40;1.30;;;26.90;33.60;;;;;;4997716;28;20037;-48
2022/05/07 13:21:07;;;;;;;3.75;2.00;;;27.10;33.50;;;;;;4990965;28;20451;-46
2022/05/07 13:23:35;;;;;;;2.35;1.35;;;27.20;32.80;;;;;;4998953;28;20041;-47
2022/05/07 13:26:03;;;;;;;2.53;1.92;;;27.30;32.60;;;;;;5012437;28;20568;-48
2022/05/07 13:28:29;;;;;;;3.30;2.17;;;27.40;32.80;;;;;;4991626;28;20433;-47
2022/05/07 13:30:58;;;;;;;3.15;1.75;;;27.60;33.00;;;;;;4999081;28;20038;-51
2022/05/07 13:33:26;;;;;;;2.45;1.40;;;28.00;34.30;;;;;;5002854;28;20056;-51